RJTE(METAR)
03/23 15:00
METAR RJTE 230600Z 33006KT 300V360 9999 FEW030 BKN230 13/M01 Q1014
RMK 1CU030 A2995=
戻る
トップページへ戻る
IMOC Co,.Ltd.